createdAt,value
2023-05-24T05:01:22.278Z,500.00
2023-05-24T05:02:22.324Z,500.00
2023-05-24T05:03:22.293Z,500.00
2023-05-24T05:04:22.221Z,500.00
2023-05-24T05:05:22.194Z,500.00
2023-05-24T05:06:22.168Z,500.00
2023-05-24T05:07:22.233Z,400.00
2023-05-24T05:08:22.221Z,400.00
2023-05-24T05:09:22.147Z,400.00
2023-05-24T05:10:23.859Z,400.00
2023-05-24T05:11:22.178Z,400.00
2023-05-24T05:12:22.125Z,400.00
2023-05-24T05:13:22.141Z,400.00
2023-05-24T05:14:22.152Z,400.00
2023-05-24T05:15:22.128Z,400.00
2023-05-24T05:16:22.120Z,400.00
2023-05-24T05:17:22.128Z,400.00
2023-05-24T05:18:22.134Z,400.00
2023-05-24T05:19:22.121Z,400.00
2023-05-24T05:20:22.105Z,400.00
2023-05-24T05:21:22.102Z,400.00
2023-05-24T05:22:22.229Z,400.00
2023-05-24T05:23:22.063Z,400.00
2023-05-24T05:24:22.106Z,400.00
2023-05-24T05:25:22.088Z,400.00
2023-05-24T05:26:22.105Z,400.00
2023-05-24T05:27:22.216Z,400.00
2023-05-24T05:28:22.202Z,400.00
2023-05-24T05:29:24.205Z,400.00
2023-05-24T05:30:22.351Z,400.00
2023-05-24T05:31:22.473Z,400.00
2023-05-24T05:32:22.606Z,425.00
2023-05-24T05:33:22.648Z,458.00
2023-05-24T05:34:34.932Z,502.00
2023-05-24T05:35:22.625Z,503.00
2023-05-24T05:36:22.611Z,504.00
2023-05-24T05:37:22.565Z,495.00
2023-05-24T05:38:22.566Z,480.00
2023-05-24T05:39:22.585Z,471.00
2023-05-24T05:40:22.591Z,500.00
2023-05-24T05:41:22.715Z,502.00
2023-05-24T05:42:22.757Z,502.00
2023-05-24T05:43:22.826Z,500.00
2023-05-24T05:44:22.675Z,502.00
2023-05-24T05:45:22.697Z,501.00
2023-05-24T05:46:22.713Z,500.00
2023-05-24T05:47:22.787Z,500.00
2023-05-24T05:48:22.782Z,497.00
2023-05-24T05:49:22.849Z,500.00
2023-05-24T05:50:22.837Z,501.00
2023-05-24T05:51:22.915Z,503.00
2023-05-24T05:52:22.901Z,500.00
2023-05-24T05:53:22.954Z,500.00
2023-05-24T05:54:23.064Z,539.00
2023-05-24T05:55:22.947Z,513.00
2023-05-24T05:56:22.964Z,527.00
2023-05-24T05:57:23.041Z,517.00
2023-05-24T05:58:23.078Z,510.00
2023-05-24T05:59:23.080Z,528.00
2023-05-24T06:00:23.128Z,501.00
2023-05-24T06:01:23.158Z,507.00
2023-05-24T06:02:23.265Z,561.00
2023-05-24T06:03:23.376Z,545.00
2023-05-24T06:04:23.298Z,526.00
2023-05-24T06:05:23.511Z,525.00
2023-05-24T06:06:23.381Z,524.00
2023-05-24T06:07:23.475Z,515.00
2023-05-24T06:08:23.675Z,523.00
2023-05-24T06:09:23.765Z,520.00
2023-05-24T06:10:23.646Z,507.00
2023-05-24T06:11:23.706Z,523.00
2023-05-24T06:12:23.779Z,523.00
2023-05-24T06:13:23.824Z,523.00
2023-05-24T06:14:23.888Z,575.00
2023-05-24T06:15:23.935Z,581.00
2023-05-24T06:16:24.012Z,578.00
2023-05-24T06:17:24.181Z,565.00
2023-05-24T06:18:24.059Z,559.00
2023-05-24T06:19:24.160Z,556.00
2023-05-24T06:20:24.240Z,546.00
2023-05-24T06:21:24.250Z,548.00
2023-05-24T06:22:24.277Z,520.00
2023-05-24T06:23:24.322Z,498.00
2023-05-24T06:24:24.448Z,500.00
2023-05-24T06:25:24.510Z,505.00
2023-05-24T06:26:24.480Z,503.00
2023-05-24T06:27:24.524Z,503.00
2023-05-24T06:28:24.512Z,503.00
2023-05-24T06:29:24.515Z,506.00
2023-05-24T06:30:24.598Z,500.00
2023-05-24T06:31:24.595Z,500.00
2023-05-24T06:32:24.615Z,508.00
2023-05-24T06:33:24.619Z,521.00
2023-05-24T06:34:24.591Z,536.00
2023-05-24T06:35:24.637Z,523.00
2023-05-24T06:36:24.651Z,529.00
2023-05-24T06:37:24.646Z,542.00
2023-05-24T06:38:24.646Z,543.00
2023-05-24T06:39:24.664Z,508.00
2023-05-24T06:40:24.689Z,519.00
2023-05-24T06:41:24.709Z,512.00
2023-05-24T06:42:24.755Z,515.00
2023-05-24T06:43:24.740Z,534.00
2023-05-24T06:44:25.398Z,533.00
2023-05-24T06:45:24.824Z,537.00
2023-05-24T06:46:24.901Z,550.00
2023-05-24T06:47:25.057Z,554.00
2023-05-24T06:48:24.961Z,566.00
2023-05-24T06:49:24.872Z,568.00
2023-05-24T06:50:24.922Z,518.00
2023-05-24T06:51:24.894Z,503.00
2023-05-24T06:52:24.909Z,500.00
2023-05-24T06:53:24.989Z,511.00
2023-05-24T06:54:25.030Z,512.00
2023-05-24T06:55:25.097Z,533.00
2023-05-24T06:56:25.123Z,560.00
2023-05-24T06:57:25.135Z,561.00
2023-05-24T06:58:25.225Z,550.00
2023-05-24T06:59:25.198Z,528.00
2023-05-24T07:00:25.205Z,512.00
2023-05-24T07:01:25.237Z,515.00
2023-05-24T07:02:25.262Z,522.00
2023-05-24T07:03:25.265Z,540.00
2023-05-24T07:04:25.360Z,535.00
2023-05-24T07:05:25.262Z,548.00
2023-05-24T07:06:25.293Z,543.00
2023-05-24T07:07:25.291Z,539.00
2023-05-24T07:08:25.315Z,567.00
2023-05-24T07:09:25.347Z,564.00
2023-05-24T07:10:25.365Z,563.00
2023-05-24T07:11:25.351Z,554.00
2023-05-24T07:12:25.343Z,557.00
2023-05-24T07:13:25.351Z,537.00
2023-05-24T07:14:25.341Z,504.00
2023-05-24T07:15:25.389Z,500.00
2023-05-24T07:16:25.444Z,504.00
2023-05-24T07:17:25.527Z,509.00
2023-05-24T07:18:25.516Z,505.00
2023-05-24T07:19:25.539Z,500.00
2023-05-24T07:20:25.666Z,502.00
2023-05-24T07:21:25.605Z,502.00
2023-05-24T07:22:25.668Z,511.00
2023-05-24T07:23:25.710Z,504.00
2023-05-24T07:24:25.761Z,508.00
2023-05-24T07:25:25.806Z,521.00
2023-05-24T07:26:25.854Z,517.00
2023-05-24T07:27:25.890Z,511.00
2023-05-24T07:28:25.946Z,532.00
2023-05-24T07:29:26.011Z,530.00
2023-05-24T07:31:26.011Z,546.00
2023-05-24T07:32:26.128Z,550.00
2023-05-24T07:33:26.091Z,557.00
2023-05-24T07:34:26.003Z,571.00
2023-05-24T07:35:26.009Z,577.00
2023-05-24T07:36:25.968Z,575.00
2023-05-24T07:37:25.964Z,557.00
2023-05-24T07:38:25.969Z,556.00
2023-05-24T07:39:26.001Z,559.00
2023-05-24T07:40:25.980Z,556.00
2023-05-24T07:41:25.956Z,563.00
2023-05-24T07:42:25.964Z,491.00
2023-05-24T07:43:25.945Z,500.00
2023-05-24T07:44:25.961Z,506.00
2023-05-24T07:45:25.952Z,534.00
2023-05-24T07:46:25.997Z,552.00
2023-05-24T07:47:26.076Z,580.00
2023-05-24T07:48:26.074Z,594.00
2023-05-24T07:49:26.129Z,607.00
2023-05-24T07:50:26.161Z,619.00
2023-05-24T07:51:26.222Z,642.00
2023-05-24T07:52:26.251Z,660.00
2023-05-24T07:53:26.256Z,713.00
2023-05-24T07:54:26.274Z,702.00
2023-05-24T07:55:26.300Z,727.00
2023-05-24T07:56:26.420Z,670.00
2023-05-24T07:57:26.468Z,733.00
2023-05-24T07:58:26.348Z,786.00
2023-05-24T07:59:26.353Z,923.00
2023-05-24T08:00:26.374Z,986.00
2023-05-24T08:01:27.355Z,981.00
2023-05-24T08:02:26.487Z,986.00
2023-05-24T08:03:26.552Z,978.00
2023-05-24T08:04:26.446Z,1021.00
2023-05-24T08:05:26.492Z,858.00
2023-05-24T08:06:26.600Z,812.00
2023-05-24T08:07:26.754Z,746.00
2023-05-24T08:08:26.691Z,691.00
2023-05-24T08:09:26.782Z,659.00
2023-05-24T08:10:26.805Z,653.00
2023-05-24T08:11:26.855Z,738.00
2023-05-24T08:12:26.895Z,790.00
2023-05-24T08:13:26.948Z,820.00
2023-05-24T08:14:26.899Z,842.00
2023-05-24T08:15:26.985Z,818.00
2023-05-24T08:16:27.014Z,890.00
2023-05-24T08:17:27.041Z,916.00
2023-05-24T08:18:27.193Z,929.00
2023-05-24T08:19:27.168Z,975.00
2023-05-24T08:20:27.340Z,1010.00
2023-05-24T08:21:27.275Z,1039.00
2023-05-24T08:22:27.327Z,1029.00
2023-05-24T08:23:27.389Z,840.00
2023-05-24T08:24:27.434Z,658.00
2023-05-24T08:25:27.443Z,610.00
2023-05-24T08:26:27.489Z,568.00
2023-05-24T08:27:27.534Z,547.00
2023-05-24T08:28:27.681Z,579.00
2023-05-24T08:29:27.543Z,653.00
2023-05-24T08:30:27.582Z,722.00
2023-05-24T08:31:27.617Z,735.00
2023-05-24T08:32:27.738Z,650.00
2023-05-24T08:33:27.716Z,611.00
2023-05-24T08:34:27.727Z,639.00
2023-05-24T08:35:27.727Z,651.00
2023-05-24T08:36:27.763Z,649.00
2023-05-24T08:37:27.780Z,662.00
2023-05-24T08:38:27.852Z,658.00
2023-05-24T08:39:27.932Z,669.00
2023-05-24T08:40:28.058Z,727.00
2023-05-24T08:41:28.140Z,788.00
2023-05-24T08:42:28.251Z,743.00
2023-05-24T08:43:29.191Z,736.00
2023-05-24T08:44:28.329Z,760.00
2023-05-24T08:45:28.323Z,812.00
2023-05-24T08:46:28.383Z,777.00
2023-05-24T08:47:28.439Z,865.00
2023-05-24T08:48:28.619Z,920.00
2023-05-24T08:49:29.666Z,981.00
2023-05-24T08:50:28.439Z,862.00
2023-05-24T08:51:28.495Z,764.00
2023-05-24T08:52:28.455Z,738.00
2023-05-24T08:53:28.396Z,695.00
2023-05-24T08:54:28.412Z,660.00
2023-05-24T08:55:29.512Z,633.00
2023-05-24T08:56:28.617Z,627.00
2023-05-24T08:57:28.604Z,590.00
2023-05-24T08:58:28.598Z,583.00
2023-05-24T08:59:28.610Z,585.00
2023-05-24T09:00:28.667Z,607.00
2023-05-24T09:01:31.049Z,624.00
2023-05-24T09:02:28.739Z,651.00
2023-05-24T09:03:28.746Z,701.00
2023-05-24T09:04:28.680Z,684.00
2023-05-24T09:05:28.641Z,620.00
2023-05-24T09:06:28.654Z,571.00
2023-05-24T09:07:29.871Z,532.00
2023-05-24T09:08:28.672Z,518.00
2023-05-24T09:09:28.644Z,498.00
2023-05-24T09:10:35.367Z,493.00
2023-05-24T09:11:29.623Z,511.00
2023-05-24T09:12:37.349Z,471.00
2023-05-24T09:13:29.594Z,454.00
2023-05-24T09:14:28.596Z,402.00
2023-05-24T09:15:28.633Z,417.00
2023-05-24T09:16:28.657Z,446.00
2023-05-24T09:17:30.654Z,430.00
2023-05-24T09:18:28.714Z,473.00
2023-05-24T09:19:28.589Z,530.00
2023-05-24T09:20:28.578Z,542.00
2023-05-24T09:21:28.550Z,528.00
2023-05-24T09:22:28.547Z,546.00
2023-05-24T09:23:28.492Z,519.00
2023-05-24T09:24:28.513Z,512.00
2023-05-24T09:25:28.562Z,500.00
2023-05-24T09:26:28.524Z,546.00
2023-05-24T09:27:28.530Z,613.00
2023-05-24T09:28:28.496Z,665.00
2023-05-24T09:29:28.469Z,771.00
2023-05-24T09:30:28.639Z,867.00
2023-05-24T09:31:28.849Z,1029.00
2023-05-24T09:32:28.501Z,1067.00
2023-05-24T09:33:28.448Z,1040.00
2023-05-24T09:34:28.461Z,1071.00
2023-05-24T09:35:28.541Z,1105.00
2023-05-24T09:36:28.438Z,1138.00
2023-05-24T09:37:31.768Z,1119.00
2023-05-24T09:38:28.436Z,1121.00
2023-05-24T09:39:28.415Z,1127.00
2023-05-24T09:40:28.428Z,1145.00
2023-05-24T09:41:28.376Z,1177.00
2023-05-24T09:42:28.511Z,1237.00
2023-05-24T09:43:28.374Z,1251.00
2023-05-24T09:44:28.348Z,1264.00
2023-05-24T09:45:28.382Z,1294.00
2023-05-24T09:46:28.365Z,1298.00
2023-05-24T09:47:28.417Z,1329.00
2023-05-24T09:48:28.349Z,1323.00
2023-05-24T09:49:28.334Z,1342.00
2023-05-24T09:50:28.345Z,1365.00
2023-05-24T09:51:28.403Z,1362.00
2023-05-24T09:52:28.312Z,1381.00
2023-05-24T09:53:28.327Z,1386.00
2023-05-24T09:54:28.318Z,1380.00
2023-05-24T09:55:28.325Z,1408.00
2023-05-24T09:56:28.297Z,1419.00
2023-05-24T09:57:28.317Z,1423.00
2023-05-24T09:58:28.267Z,1448.00
2023-05-24T09:59:28.284Z,1453.00
2023-05-24T10:00:28.291Z,1469.00
2023-05-24T10:01:28.360Z,1484.00
2023-05-24T10:02:31.454Z,1496.00
2023-05-24T10:03:29.368Z,1498.00
2023-05-24T10:04:28.298Z,1501.00
2023-05-24T10:05:28.296Z,1509.00
2023-05-24T10:06:28.246Z,1521.00
2023-05-24T10:07:28.257Z,1537.00
2023-05-24T10:08:28.233Z,1539.00
2023-05-24T10:09:28.208Z,1540.00
2023-05-24T10:10:28.256Z,1547.00
2023-05-24T10:11:28.229Z,1560.00
2023-05-24T10:12:28.221Z,1569.00
2023-05-24T10:13:28.197Z,1571.00
2023-05-24T10:14:28.213Z,1584.00
2023-05-24T10:15:28.260Z,1580.00
2023-05-24T10:16:28.284Z,1581.00
2023-05-24T10:17:28.360Z,1589.00
2023-05-24T10:18:28.331Z,1581.00
2023-05-24T10:19:28.347Z,1606.00
2023-05-24T10:20:28.512Z,1612.00
2023-05-24T10:21:28.528Z,1605.00
2023-05-24T10:22:28.475Z,1611.00
2023-05-24T10:23:28.512Z,1621.00
2023-05-24T10:24:28.513Z,1567.00
2023-05-24T10:25:28.563Z,1603.00
2023-05-24T10:26:28.635Z,1595.00
2023-05-24T10:27:28.640Z,1597.00
2023-05-24T10:28:28.693Z,1602.00
2023-05-24T10:29:28.650Z,1594.00
2023-05-24T10:30:28.732Z,1579.00
2023-05-24T10:31:28.786Z,1592.00
2023-05-24T10:32:28.780Z,1566.00
2023-05-24T10:33:28.825Z,1596.00
2023-05-24T10:34:28.845Z,1604.00
2023-05-24T10:35:28.885Z,1636.00
2023-05-24T10:36:28.876Z,1657.00
2023-05-24T10:37:28.960Z,1623.00
2023-05-24T10:38:28.946Z,1634.00
2023-05-24T10:39:29.016Z,1615.00
2023-05-24T10:40:29.010Z,1622.00
2023-05-24T10:41:29.067Z,1640.00
2023-05-24T10:42:29.058Z,1610.00
2023-05-24T10:43:29.153Z,1632.00
2023-05-24T10:44:29.156Z,1663.00
2023-05-24T10:45:29.194Z,1654.00
2023-05-24T10:46:29.481Z,1634.00
2023-05-24T10:47:29.292Z,1645.00
2023-05-24T10:48:29.329Z,1664.00
2023-05-24T10:49:29.338Z,1687.00
2023-05-24T10:50:29.391Z,1693.00
2023-05-24T10:51:29.423Z,1717.00
2023-05-24T10:52:29.508Z,1705.00
2023-05-24T10:53:29.541Z,1730.00
2023-05-24T10:54:29.561Z,1727.00
2023-05-24T10:55:29.576Z,1776.00
2023-05-24T10:56:29.616Z,1744.00
2023-05-24T10:57:29.915Z,1756.00
2023-05-24T10:58:29.718Z,1670.00
2023-05-24T10:59:29.780Z,1647.00
2023-05-24T11:01:29.837Z,1693.00
2023-05-24T11:02:29.828Z,1572.00
2023-05-24T11:03:29.804Z,1564.00
2023-05-24T11:04:29.773Z,1565.00
2023-05-24T11:05:29.836Z,1453.00
2023-05-24T11:06:29.784Z,1419.00
2023-05-24T11:07:29.775Z,1171.00
2023-05-24T11:08:29.763Z,996.00
2023-05-24T11:09:29.744Z,910.00
2023-05-24T11:10:29.757Z,940.00
2023-05-24T11:11:32.177Z,959.00
2023-05-24T11:12:29.715Z,1007.00
2023-05-24T11:13:29.721Z,1030.00
2023-05-24T11:14:29.728Z,1117.00
2023-05-24T11:15:29.755Z,1117.00
2023-05-24T11:16:29.700Z,1132.00
2023-05-24T11:17:29.698Z,1129.00
2023-05-24T11:18:29.676Z,1211.00
2023-05-24T11:19:29.697Z,1197.00
2023-05-24T11:20:29.710Z,1242.00
2023-05-24T11:21:29.667Z,1207.00
2023-05-24T11:22:29.699Z,1194.00
2023-05-24T11:23:29.632Z,1242.00
2023-05-24T11:24:29.650Z,1204.00
2023-05-24T11:25:29.642Z,1187.00
2023-05-24T11:26:29.616Z,1198.00
2023-05-24T11:27:29.603Z,1187.00
2023-05-24T11:28:29.645Z,1202.00
2023-05-24T11:29:29.596Z,1203.00
2023-05-24T11:30:29.589Z,1207.00
2023-05-24T11:31:29.631Z,1221.00
2023-05-24T11:32:29.580Z,1233.00
2023-05-24T11:33:29.550Z,1241.00
2023-05-24T11:34:29.576Z,1272.00
2023-05-24T11:35:29.590Z,1268.00
2023-05-24T11:36:29.552Z,1302.00
2023-05-24T11:37:45.189Z,1344.00
2023-05-24T11:38:30.544Z,1346.00
2023-05-24T11:39:29.540Z,1350.00
2023-05-24T11:40:29.551Z,1364.00
2023-05-24T11:41:29.527Z,1391.00
2023-05-24T11:42:29.529Z,1431.00
2023-05-24T11:43:29.466Z,1434.00
2023-05-24T11:44:29.526Z,1447.00
2023-05-24T11:45:29.616Z,1437.00
2023-05-24T11:46:29.524Z,1466.00
2023-05-24T11:47:29.506Z,1469.00
2023-05-24T11:48:29.454Z,1472.00
2023-05-24T11:49:29.474Z,1477.00
2023-05-24T11:50:33.157Z,1500.00
2023-05-24T11:51:30.452Z,1501.00
2023-05-24T11:52:29.446Z,1505.00
2023-05-24T11:53:29.435Z,1511.00
2023-05-24T11:54:29.425Z,1537.00
2023-05-24T11:55:29.455Z,1549.00
2023-05-24T11:56:32.294Z,1552.00
2023-05-24T11:57:29.393Z,1553.00
2023-05-24T11:58:29.396Z,1553.00
2023-05-24T11:59:29.399Z,1563.00
2023-05-24T12:00:29.373Z,1561.00
2023-05-24T12:01:29.376Z,1546.00
2023-05-24T12:02:29.419Z,1555.00
2023-05-24T12:03:29.589Z,1533.00
2023-05-24T12:04:29.511Z,1549.00
2023-05-24T12:05:29.353Z,1567.00
2023-05-24T12:06:29.330Z,1539.00
2023-05-24T12:07:29.352Z,1494.00
2023-05-24T12:08:29.298Z,1471.00
2023-05-24T12:09:29.294Z,1394.00
2023-05-24T12:10:29.300Z,1383.00
2023-05-24T12:11:29.315Z,1354.00
2023-05-24T12:12:34.351Z,1382.00
2023-05-24T12:13:30.375Z,1340.00
2023-05-24T12:14:29.283Z,1284.00
2023-05-24T12:15:29.289Z,1268.00
2023-05-24T12:16:29.388Z,1240.00
2023-05-24T12:17:29.323Z,1234.00
2023-05-24T12:18:29.917Z,1208.00
2023-05-24T12:19:33.138Z,1216.00
2023-05-24T12:20:29.304Z,1216.00
2023-05-24T12:21:29.282Z,1152.00
2023-05-24T12:22:29.234Z,1218.00
2023-05-24T12:23:29.259Z,1229.00
2023-05-24T12:24:29.239Z,1142.00
2023-05-24T12:25:29.229Z,1073.00
2023-05-24T12:26:29.243Z,1011.00
2023-05-24T12:27:29.220Z,914.00
2023-05-24T12:28:29.214Z,923.00
2023-05-24T12:29:29.242Z,951.00
2023-05-24T12:30:29.190Z,950.00
2023-05-24T12:31:29.214Z,955.00
2023-05-24T12:32:29.221Z,965.00
2023-05-24T12:33:29.142Z,962.00
2023-05-24T12:34:29.154Z,954.00
2023-05-24T12:35:29.189Z,921.00
2023-05-24T12:36:29.156Z,843.00
2023-05-24T12:37:29.144Z,805.00
2023-05-24T12:38:29.178Z,687.00
2023-05-24T12:39:29.157Z,624.00
2023-05-24T12:40:29.162Z,585.00
2023-05-24T12:41:29.186Z,606.00
2023-05-24T12:42:29.199Z,628.00
2023-05-24T12:43:29.305Z,654.00
2023-05-24T12:44:29.227Z,639.00
2023-05-24T12:45:29.255Z,624.00
2023-05-24T12:46:29.355Z,579.00
2023-05-24T12:47:29.398Z,553.00
2023-05-24T12:48:29.368Z,546.00
2023-05-24T12:49:29.474Z,535.00
2023-05-24T12:50:29.575Z,513.00
2023-05-24T12:51:29.613Z,500.00
2023-05-24T12:52:29.570Z,500.00
2023-05-24T12:53:29.608Z,517.00
2023-05-24T12:54:29.644Z,511.00
2023-05-24T12:55:29.683Z,514.00
2023-05-24T12:56:29.726Z,527.00
2023-05-24T12:57:29.790Z,504.00
2023-05-24T12:58:29.824Z,500.00
2023-05-24T12:59:29.881Z,497.00
2023-05-24T13:00:29.859Z,503.00
2023-05-24T13:01:30.046Z,508.00
2023-05-24T13:02:29.980Z,513.00
2023-05-24T13:03:30.006Z,516.00
2023-05-24T13:04:30.016Z,510.00
2023-05-24T13:05:30.110Z,499.00
2023-05-24T13:06:30.078Z,500.00
2023-05-24T13:07:30.182Z,519.00
2023-05-24T13:08:30.200Z,520.00
2023-05-24T13:09:30.247Z,502.00
2023-05-24T13:10:30.279Z,516.00
2023-05-24T13:11:30.308Z,564.00
2023-05-24T13:12:30.374Z,601.00
2023-05-24T13:13:30.438Z,665.00
2023-05-24T13:14:30.451Z,746.00
2023-05-24T13:15:30.458Z,807.00
2023-05-24T13:16:30.505Z,803.00
2023-05-24T13:17:30.517Z,893.00
2023-05-24T13:18:30.503Z,858.00
2023-05-24T13:19:30.553Z,878.00
2023-05-24T13:20:30.634Z,954.00
2023-05-24T13:21:30.548Z,1108.00
2023-05-24T13:22:30.626Z,1156.00
2023-05-24T13:23:30.763Z,1072.00
2023-05-24T13:24:30.740Z,983.00
2023-05-24T13:25:30.773Z,947.00
2023-05-24T13:26:30.797Z,927.00
2023-05-24T13:27:30.774Z,932.00
2023-05-24T13:28:30.855Z,920.00
2023-05-24T13:29:37.117Z,896.00
2023-05-24T13:30:31.793Z,897.00
2023-05-24T13:31:30.876Z,900.00
2023-05-24T13:32:30.806Z,903.00
2023-05-24T13:33:31.029Z,965.00
2023-05-24T13:34:30.793Z,1011.00
2023-05-24T13:35:30.764Z,1067.00
2023-05-24T13:36:30.783Z,992.00
2023-05-24T13:37:30.739Z,987.00
2023-05-24T13:38:30.778Z,953.00
2023-05-24T13:39:30.810Z,950.00
2023-05-24T13:40:30.736Z,910.00
2023-05-24T13:41:30.794Z,905.00
2023-05-24T13:42:30.930Z,875.00
2023-05-24T13:43:30.856Z,854.00
2023-05-24T13:44:30.946Z,854.00
2023-05-24T13:45:30.865Z,820.00
2023-05-24T13:46:30.899Z,843.00
2023-05-24T13:47:39.219Z,793.00
2023-05-24T13:48:31.883Z,794.00
2023-05-24T13:49:30.837Z,793.00
2023-05-24T13:50:30.838Z,804.00
2023-05-24T13:51:30.875Z,831.00
2023-05-24T13:52:30.852Z,803.00
2023-05-24T13:53:30.867Z,788.00
2023-05-24T13:54:30.826Z,807.00
2023-05-24T13:55:30.818Z,817.00
2023-05-24T13:56:30.789Z,851.00
2023-05-24T13:57:43.077Z,1007.00
2023-05-24T13:58:31.867Z,1009.00
2023-05-24T13:59:30.903Z,1017.00
2023-05-24T14:00:30.857Z,1038.00
2023-05-24T14:01:30.970Z,1065.00
2023-05-24T14:02:30.964Z,1121.00
2023-05-24T14:03:30.960Z,1149.00
2023-05-24T14:04:31.070Z,1157.00
2023-05-24T14:05:31.250Z,1207.00
2023-05-24T14:06:31.138Z,1175.00
2023-05-24T14:07:31.215Z,1159.00
2023-05-24T14:08:31.139Z,1199.00
2023-05-24T14:09:31.139Z,1210.00
2023-05-24T14:10:31.207Z,1222.00
2023-05-24T14:11:31.210Z,1247.00
2023-05-24T14:12:31.301Z,1268.00
2023-05-24T14:13:55.709Z,1303.00
2023-05-24T14:15:31.348Z,1305.00
2023-05-24T14:16:31.429Z,1315.00
2023-05-24T14:17:31.320Z,1337.00
2023-05-24T14:18:31.330Z,1359.00
2023-05-24T14:19:31.287Z,1407.00
2023-05-24T14:20:31.362Z,1406.00
2023-05-24T14:21:31.295Z,1424.00
2023-05-24T14:22:31.304Z,1399.00
2023-05-24T14:23:31.256Z,1406.00
2023-05-24T14:24:31.272Z,1410.00
2023-05-24T14:25:31.256Z,1391.00
2023-05-24T14:26:31.255Z,1392.00
2023-05-24T14:27:31.226Z,1388.00
2023-05-24T14:28:31.239Z,1409.00
2023-05-24T14:29:31.250Z,1421.00
2023-05-24T14:30:31.205Z,1427.00
2023-05-24T14:31:31.368Z,1418.00
2023-05-24T14:32:31.274Z,1443.00
2023-05-24T14:33:31.212Z,1438.00
2023-05-24T14:34:31.248Z,1443.00
2023-05-24T14:35:31.219Z,1450.00
2023-05-24T14:36:31.192Z,1449.00
2023-05-24T14:37:31.194Z,1445.00
2023-05-24T14:38:31.265Z,1451.00
2023-05-24T14:39:31.308Z,1455.00
2023-05-24T14:40:31.410Z,1450.00
2023-05-24T14:41:31.435Z,1456.00
2023-05-24T14:42:31.508Z,1478.00
2023-05-24T14:43:31.592Z,1456.00
2023-05-24T14:44:31.640Z,1469.00
2023-05-24T14:45:31.704Z,1473.00
2023-05-24T14:46:31.838Z,1477.00
2023-05-24T14:47:31.853Z,1489.00
2023-05-24T14:48:31.871Z,1490.00
2023-05-24T14:49:31.941Z,1473.00
2023-05-24T14:50:31.998Z,1482.00
2023-05-24T14:51:33.031Z,1502.00
2023-05-24T14:52:32.138Z,1497.00
2023-05-24T14:53:32.197Z,1494.00
2023-05-24T14:54:32.240Z,1510.00
2023-05-24T14:55:32.303Z,1507.00
2023-05-24T14:56:32.365Z,1484.00
2023-05-24T14:57:32.448Z,1486.00
2023-05-24T14:58:32.469Z,1510.00
2023-05-24T14:59:32.537Z,1502.00
2023-05-24T15:00:32.577Z,1501.00
2023-05-24T15:01:32.704Z,1531.00
2023-05-24T15:02:32.792Z,1516.00
2023-05-24T15:03:33.117Z,1507.00
2023-05-24T15:04:32.868Z,1508.00
2023-05-24T15:05:32.900Z,1512.00
2023-05-24T15:06:32.982Z,1521.00
2023-05-24T15:07:33.041Z,1520.00
2023-05-24T15:08:33.127Z,1521.00
2023-05-24T15:09:33.139Z,1510.00
2023-05-24T15:10:33.320Z,1518.00
2023-05-24T15:11:33.380Z,1507.00
2023-05-24T15:12:33.350Z,1515.00
2023-05-24T15:13:33.462Z,1514.00
2023-05-24T15:14:33.458Z,1541.00
2023-05-24T15:15:33.572Z,1503.00
2023-05-24T15:16:33.643Z,1527.00
2023-05-24T15:17:33.786Z,1520.00
2023-05-24T15:18:33.696Z,1518.00
2023-05-24T15:19:33.818Z,1539.00
2023-05-24T15:20:35.788Z,1536.00
2023-05-24T15:21:34.858Z,1537.00
2023-05-24T15:22:33.830Z,1540.00
2023-05-24T15:23:33.810Z,1539.00
2023-05-24T15:24:33.845Z,1514.00
2023-05-24T15:25:33.835Z,1501.00
2023-05-24T15:26:33.784Z,1524.00
2023-05-24T15:27:33.780Z,1523.00
2023-05-24T15:28:33.828Z,1519.00
2023-05-24T15:29:33.874Z,1532.00
2023-05-24T15:30:33.927Z,1531.00
2023-05-24T15:31:33.975Z,1543.00
2023-05-24T15:32:34.018Z,1560.00
2023-05-24T15:33:34.105Z,1554.00
2023-05-24T15:34:34.169Z,1543.00
2023-05-24T15:35:34.235Z,1542.00
2023-05-24T15:36:34.299Z,1544.00
2023-05-24T15:37:34.347Z,1553.00
2023-05-24T15:38:34.414Z,1539.00
2023-05-24T15:39:34.458Z,1544.00
2023-05-24T15:40:34.527Z,1529.00
2023-05-24T15:41:34.645Z,1506.00
2023-05-24T15:42:34.668Z,1498.00
2023-05-24T15:43:34.746Z,1516.00
2023-05-24T15:44:34.809Z,1507.00
2023-05-24T15:45:34.874Z,1527.00
2023-05-24T15:46:34.982Z,1505.00
2023-05-24T15:47:35.009Z,1530.00
2023-05-24T15:48:37.134Z,1500.00
2023-05-24T15:49:35.083Z,1502.00
2023-05-24T15:50:57.454Z,1498.00
2023-05-24T15:52:36.199Z,1500.00
2023-05-24T15:53:35.164Z,1507.00
2023-05-24T15:54:35.127Z,1511.00
2023-05-24T15:55:35.115Z,1516.00
2023-05-24T15:56:35.143Z,1501.00
2023-05-24T15:57:35.130Z,1475.00
2023-05-24T15:58:35.110Z,1491.00
2023-05-24T15:59:35.105Z,1484.00
2023-05-24T16:00:35.103Z,1476.00
2023-05-24T16:01:35.156Z,1476.00
2023-05-24T16:02:35.103Z,1473.00
2023-05-24T16:03:35.186Z,1479.00
2023-05-24T16:04:35.062Z,1464.00
2023-05-24T16:05:35.072Z,1455.00
2023-05-24T16:06:35.077Z,1462.00
2023-05-24T16:07:35.081Z,1449.00
2023-05-24T16:08:35.056Z,1432.00
2023-05-24T16:09:35.018Z,1446.00
2023-05-24T16:10:35.033Z,1464.00
2023-05-24T16:11:35.023Z,1449.00
2023-05-24T16:12:35.029Z,1439.00
2023-05-24T16:13:35.110Z,1438.00
2023-05-24T16:14:35.161Z,1441.00
2023-05-24T16:15:35.235Z,1434.00
2023-05-24T16:16:35.329Z,1433.00
2023-05-24T16:17:35.347Z,1436.00
2023-05-24T16:18:35.444Z,1436.00
2023-05-24T16:19:35.461Z,1432.00
2023-05-24T16:20:35.540Z,1423.00
2023-05-24T16:21:35.593Z,1429.00
2023-05-24T16:22:35.633Z,1436.00
2023-05-24T16:23:35.703Z,1436.00
2023-05-24T16:24:35.748Z,1433.00
2023-05-24T16:25:35.852Z,1422.00
2023-05-24T16:26:35.899Z,1419.00
2023-05-24T16:27:35.974Z,1420.00
2023-05-24T16:28:36.089Z,1412.00
2023-05-24T16:29:37.220Z,1414.00
2023-05-24T16:30:36.119Z,1419.00
2023-05-24T16:31:36.223Z,1409.00
2023-05-24T16:32:36.276Z,1404.00
2023-05-24T16:33:36.317Z,1418.00
2023-05-24T16:34:45.103Z,1402.00
2023-05-24T16:35:37.388Z,1403.00
2023-05-24T16:36:36.350Z,1406.00
2023-05-24T16:37:36.363Z,1408.00
2023-05-24T16:38:36.365Z,1404.00
2023-05-24T16:39:36.397Z,1416.00
2023-05-24T16:40:36.373Z,1406.00
2023-05-24T16:41:36.329Z,1401.00
2023-05-24T16:42:36.326Z,1407.00
2023-05-24T16:43:36.369Z,1396.00
2023-05-24T16:44:36.433Z,1397.00
2023-05-24T16:45:36.481Z,1395.00
2023-05-24T16:46:36.650Z,1385.00
2023-05-24T16:47:36.629Z,1388.00
2023-05-24T16:48:36.809Z,1391.00
2023-05-24T16:49:36.722Z,1390.00
2023-05-24T16:50:36.792Z,1377.00
2023-05-24T16:51:36.872Z,1382.00
2023-05-24T16:52:36.900Z,1380.00
2023-05-24T16:53:37.002Z,1392.00
2023-05-24T16:54:37.063Z,1388.00
2023-05-24T16:55:37.120Z,1366.00
2023-05-24T16:56:37.193Z,1372.00
2023-05-24T16:57:37.246Z,1385.00
2023-05-24T16:58:37.325Z,1381.00
2023-05-24T16:59:37.353Z,1368.00
2023-05-24T17:00:37.408Z,1366.00
